Time;durP1;ratioP1;P1;durP2;ratioP2;P2;SDS_P1;SDS_P2;PMS_P1;PMS_P2;Temp;Humidity;BMP_temperature;BMP_pressure;BME280_temperature;BME280_humidity;BME280_pressure;Samples;Min_cycle;Max_cycle;Signal;HPM_P1;HPM_P2
2022/01/05 00:00:30;;;;;;;6.55;1.23;;;;;;;;;;5089796;28;20039;-61
2022/01/05 00:02:56;;;;;;;7.35;1.38;;;;;;;;;;5088483;28;20513;-60
2022/01/05 00:05:22;;;;;;;5.65;1.27;;;;;;;;;;5089372;28;20039;-61
2022/01/05 00:07:48;;;;;;;7.93;0.85;;;;;;;;;;5087735;28;20044;-61
2022/01/05 00:10:14;;;;;;;7.70;0.98;;;;;;;;;;5089571;28;20101;-62
2022/01/05 00:12:40;;;;;;;8.68;1.30;;;;;;;;;;5090084;28;20093;-60
2022/01/05 00:15:06;;;;;;;6.22;1.20;;;;;;;;;;5089402;28;20142;-62
2022/01/05 00:17:32;;;;;;;9.07;1.80;;;;;;;;;;5088484;28;20040;-62
2022/01/05 00:19:58;;;;;;;14.23;1.20;;;;;;;;;;5089867;28;20035;-61
2022/01/05 00:22:24;;;;;;;8.18;1.30;;;;;;;;;;5088292;28;20032;-61
2022/01/05 00:24:50;;;;;;;11.57;1.15;;;;;;;;;;5089132;28;20032;-62
2022/01/05 00:27:16;;;;;;;12.13;1.33;;;;;;;;;;5089174;28;20047;-61
2022/01/05 00:29:42;;;;;;;8.80;1.45;;;;;;;;;;5089167;28;20059;-60
2022/01/05 00:32:09;;;;;;;8.60;0.90;;;;;;;;;;5089082;28;20073;-60
2022/01/05 00:34:35;;;;;;;8.05;1.13;;;;;;;;;;5089431;28;20115;-60
2022/01/05 00:37:01;;;;;;;4.05;1.10;;;;;;;;;;5088648;28;20040;-60
2022/01/05 00:39:27;;;;;;;8.90;1.10;;;;;;;;;;5088312;28;20035;-61
2022/01/05 00:41:53;;;;;;;4.57;0.80;;;;;;;;;;5089407;28;20050;-63
2022/01/05 00:44:19;;;;;;;5.28;0.80;;;;;;;;;;5089266;28;20062;-61
2022/01/05 00:46:45;;;;;;;8.43;1.55;;;;;;;;;;5089009;28;20036;-62
2022/01/05 00:49:12;;;;;;;6.90;1.42;;;;;;;;;;5087617;28;20028;-63
2022/01/05 00:51:38;;;;;;;4.63;0.90;;;;;;;;;;5089353;28;20051;-61
2022/01/05 00:54:05;;;;;;;6.93;1.45;;;;;;;;;;5089371;28;20048;-61
2022/01/05 00:56:31;;;;;;;5.47;1.00;;;;;;;;;;5088585;28;20127;-60
2022/01/05 00:58:57;;;;;;;10.75;1.17;;;;;;;;;;5088841;28;20032;-61
2022/01/05 01:01:23;;;;;;;8.43;1.10;;;;;;;;;;5089186;28;20036;-61
2022/01/05 01:03:49;;;;;;;7.68;1.60;;;;;;;;;;5088947;28;20032;-62
2022/01/05 01:06:15;;;;;;;7.00;1.02;;;;;;;;;;5088771;28;20064;-61
2022/01/05 01:08:41;;;;;;;7.03;1.30;;;;;;;;;;5087999;28;20057;-60
2022/01/05 01:11:07;;;;;;;13.52;1.92;;;;;;;;;;5087287;28;20048;-62
2022/01/05 01:13:34;;;;;;;10.70;1.77;;;;;;;;;;5089403;28;20032;-63
2022/01/05 01:16:00;;;;;;;6.45;1.30;;;;;;;;;;5088729;28;20399;-62
2022/01/05 01:18:26;;;;;;;5.75;1.58;;;;;;;;;;5088468;28;20051;-62
2022/01/05 01:20:52;;;;;;;11.68;1.60;;;;;;;;;;5087574;28;20032;-63
2022/01/05 01:23:21;;;;;;;5.75;1.42;;;;;;;;;;5088995;28;20044;-61
2022/01/05 01:25:47;;;;;;;10.80;1.40;;;;;;;;;;5090743;28;20051;-62
2022/01/05 01:28:13;;;;;;;13.27;2.08;;;;;;;;;;5092649;28;20380;-62
2022/01/05 01:30:39;;;;;;;3.33;0.82;;;;;;;;;;5092644;28;20066;-61
2022/01/05 01:33:05;;;;;;;6.30;1.20;;;;;;;;;;5092377;28;20036;-62
2022/01/05 01:35:31;;;;;;;14.15;1.30;;;;;;;;;;5092861;28;20039;-61
2022/01/05 01:37:57;;;;;;;11.60;1.73;;;;;;;;;;5092138;28;20496;-60
2022/01/05 01:40:23;;;;;;;7.18;1.33;;;;;;;;;;5090953;28;20028;-62
2022/01/05 01:42:50;;;;;;;9.32;1.27;;;;;;;;;;5091376;28;20046;-62
2022/01/05 01:45:16;;;;;;;11.05;1.25;;;;;;;;;;5089774;28;20157;-62
2022/01/05 01:47:42;;;;;;;10.77;1.33;;;;;;;;;;5092516;28;20131;-61
2022/01/05 01:50:09;;;;;;;12.68;2.97;;;;;;;;;;5090525;28;20054;-60
2022/01/05 01:52:35;;;;;;;4.55;1.33;;;;;;;;;;5091463;28;20032;-61
2022/01/05 01:55:01;;;;;;;9.18;1.20;;;;;;;;;;5090979;28;20044;-62
2022/01/05 01:57:29;;;;;;;11.43;2.08;;;;;;;;;;5074191;28;20065;-60
2022/01/05 01:59:58;;;;;;;8.90;1.42;;;;;;;;;;5092073;28;20078;-61
2022/01/05 02:02:24;;;;;;;9.70;1.60;;;;;;;;;;5091606;28;20036;-62
2022/01/05 02:04:50;;;;;;;10.75;1.98;;;;;;;;;;5091810;28;20028;-61
2022/01/05 02:07:16;;;;;;;13.27;2.15;;;;;;;;;;5090141;28;20142;-60
2022/01/05 02:09:42;;;;;;;12.93;1.70;;;;;;;;;;5092073;28;20048;-62
2022/01/05 02:12:09;;;;;;;7.63;1.25;;;;;;;;;;5091903;28;20043;-61
2022/01/05 02:14:35;;;;;;;15.27;2.47;;;;;;;;;;5091381;28;20043;-62
2022/01/05 02:17:09;;;;;;;10.50;2.50;;;;;;;;;;5091806;28;20048;-61
2022/01/05 02:19:35;;;;;;;7.90;2.13;;;;;;;;;;5091613;28;20040;-62
2022/01/05 02:22:01;;;;;;;10.98;1.70;;;;;;;;;;5091699;28;20123;-63
2022/01/05 02:24:27;;;;;;;14.35;1.65;;;;;;;;;;5091196;28;20040;-63
2022/01/05 02:26:53;;;;;;;9.98;1.60;;;;;;;;;;5092029;28;20054;-62
2022/01/05 02:29:21;;;;;;;10.38;2.00;;;;;;;;;;5089575;28;20490;-62
2022/01/05 02:31:47;;;;;;;7.90;1.70;;;;;;;;;;5090422;28;20387;-61
2022/01/05 02:34:15;;;;;;;9.32;2.15;;;;;;;;;;5091058;28;20493;-63
2022/01/05 02:36:41;;;;;;;11.60;1.67;;;;;;;;;;5091275;28;20048;-63
2022/01/05 02:39:07;;;;;;;14.27;3.17;;;;;;;;;;5091805;28;20486;-61
2022/01/05 02:41:33;;;;;;;14.25;1.80;;;;;;;;;;5091291;28;20119;-63
2022/01/05 02:43:59;;;;;;;15.77;1.90;;;;;;;;;;5088910;28;20036;-61
2022/01/05 02:46:25;;;;;;;10.57;1.85;;;;;;;;;;5091720;28;20043;-61
2022/01/05 02:48:53;;;;;;;10.80;1.90;;;;;;;;;;5090900;28;20032;-62
2022/01/05 02:51:19;;;;;;;14.40;2.28;;;;;;;;;;5091182;28;20036;-61
2022/01/05 02:53:46;;;;;;;8.65;1.50;;;;;;;;;;5089494;28;20040;-61
2022/01/05 02:56:12;;;;;;;8.25;1.73;;;;;;;;;;5090859;28;20039;-63
2022/01/05 02:58:39;;;;;;;11.50;2.33;;;;;;;;;;5091304;28;20144;-61
2022/01/05 03:01:05;;;;;;;13.73;2.17;;;;;;;;;;5091158;28;20117;-62
2022/01/05 03:03:31;;;;;;;12.30;1.90;;;;;;;;;;5090817;28;20047;-61
2022/01/05 03:05:57;;;;;;;11.50;1.98;;;;;;;;;;5090855;28;20032;-61
2022/01/05 03:08:23;;;;;;;16.90;2.53;;;;;;;;;;5091013;28;20044;-61
2022/01/05 03:10:49;;;;;;;17.85;2.05;;;;;;;;;;5090463;28;20036;-61
2022/01/05 03:13:15;;;;;;;11.40;2.00;;;;;;;;;;5089910;28;20129;-62
2022/01/05 03:15:41;;;;;;;13.48;2.10;;;;;;;;;;5090719;28;20063;-59
2022/01/05 03:18:08;;;;;;;14.40;2.75;;;;;;;;;;5090275;28;20125;-62
2022/01/05 03:20:34;;;;;;;14.77;2.35;;;;;;;;;;5090087;28;20123;-62
2022/01/05 03:23:01;;;;;;;13.43;2.05;;;;;;;;;;5090433;28;20573;-60
2022/01/05 03:25:27;;;;;;;11.73;1.75;;;;;;;;;;5090540;28;20482;-61
2022/01/05 03:27:54;;;;;;;11.27;1.95;;;;;;;;;;5090444;28;20066;-61
2022/01/05 03:30:25;;;;;;;14.00;1.85;;;;;;;;;;5090376;28;20052;-62
2022/01/05 03:35:27;;;;;;;13.05;2.10;;;;;;;;;;5090463;28;20052;-61
2022/01/05 03:37:53;;;;;;;14.95;1.98;;;;;;;;;;5089180;28;20564;-62
2022/01/05 03:40:19;;;;;;;13.55;2.00;;;;;;;;;;5090242;28;20503;-62
2022/01/05 03:42:45;;;;;;;13.95;1.55;;;;;;;;;;5090537;28;20042;-61
2022/01/05 03:45:11;;;;;;;20.25;2.83;;;;;;;;;;5090505;28;20036;-61
2022/01/05 03:47:37;;;;;;;10.18;2.10;;;;;;;;;;5089774;28;20093;-62
2022/01/05 03:50:03;;;;;;;19.15;2.72;;;;;;;;;;5089725;28;20046;-61
2022/01/05 03:52:29;;;;;;;11.13;1.73;;;;;;;;;;5089897;28;20090;-61
2022/01/05 03:54:55;;;;;;;13.93;2.35;;;;;;;;;;5090085;28;20039;-61
2022/01/05 03:57:21;;;;;;;12.48;2.00;;;;;;;;;;5089898;28;20040;-63
2022/01/05 03:59:47;;;;;;;12.20;1.80;;;;;;;;;;5089486;28;20433;-60
2022/01/05 04:02:13;;;;;;;17.42;2.65;;;;;;;;;;5090292;28;20073;-63
2022/01/05 04:04:39;;;;;;;14.65;1.65;;;;;;;;;;5088126;28;20032;-61
2022/01/05 04:07:05;;;;;;;15.43;3.10;;;;;;;;;;5089361;28;20053;-62
2022/01/05 04:09:31;;;;;;;14.88;1.83;;;;;;;;;;5089256;28;20475;-60
2022/01/05 04:11:57;;;;;;;17.58;2.00;;;;;;;;;;5089394;28;20055;-62
2022/01/05 04:14:23;;;;;;;11.35;1.48;;;;;;;;;;5089761;28;20040;-62
2022/01/05 04:16:49;;;;;;;11.18;1.65;;;;;;;;;;5089575;28;20363;-61
2022/01/05 04:19:15;;;;;;;13.02;2.00;;;;;;;;;;5089261;28;20047;-60
2022/01/05 04:21:41;;;;;;;13.40;1.80;;;;;;;;;;5089496;28;20126;-61
2022/01/05 04:24:08;;;;;;;13.02;1.73;;;;;;;;;;5088047;28;20148;-61
2022/01/05 04:26:34;;;;;;;13.68;1.63;;;;;;;;;;5089499;28;20032;-60
2022/01/05 04:29:00;;;;;;;13.18;1.70;;;;;;;;;;5088559;28;20639;-63
2022/01/05 04:31:26;;;;;;;14.30;1.75;;;;;;;;;;5088146;28;20406;-60
2022/01/05 04:33:52;;;;;;;13.38;2.28;;;;;;;;;;5089169;28;20035;-62
2022/01/05 04:36:18;;;;;;;13.55;1.85;;;;;;;;;;5089132;28;20036;-63
2022/01/05 04:38:44;;;;;;;10.27;1.52;;;;;;;;;;5089222;28;20040;-62
2022/01/05 04:41:10;;;;;;;16.67;1.95;;;;;;;;;;5085918;28;20491;-62
2022/01/05 04:43:36;;;;;;;12.07;2.13;;;;;;;;;;5089496;28;20599;-60
2022/01/05 04:46:02;;;;;;;9.45;1.83;;;;;;;;;;5089423;28;20028;-62
2022/01/05 04:48:29;;;;;;;9.13;1.80;;;;;;;;;;5089746;28;20075;-62
2022/01/05 04:50:55;;;;;;;8.52;1.50;;;;;;;;;;5088798;28;20115;-61
2022/01/05 04:53:21;;;;;;;13.25;1.75;;;;;;;;;;5089226;28;20036;-61
2022/01/05 04:55:47;;;;;;;12.50;1.98;;;;;;;;;;5088949;28;20306;-62
2022/01/05 04:58:13;;;;;;;15.20;2.15;;;;;;;;;;5087921;28;20481;-63
2022/01/05 05:00:39;;;;;;;11.90;1.83;;;;;;;;;;5090432;28;20032;-61
2022/01/05 05:03:05;;;;;;;14.93;2.45;;;;;;;;;;5093303;28;20024;-60
2022/01/05 05:05:31;;;;;;;13.52;2.47;;;;;;;;;;5093306;28;20047;-62
2022/01/05 05:07:58;;;;;;;9.25;2.38;;;;;;;;;;5091934;28;20123;-62
2022/01/05 05:10:24;;;;;;;11.13;1.85;;;;;;;;;;5093165;28;20079;-61
2022/01/05 05:12:50;;;;;;;11.68;1.38;;;;;;;;;;5093091;28;20414;-60
2022/01/05 05:15:16;;;;;;;10.55;1.33;;;;;;;;;;5093274;28;20486;-62
2022/01/05 05:17:42;;;;;;;13.73;1.60;;;;;;;;;;5093187;28;20036;-61
2022/01/05 05:20:09;;;;;;;14.50;1.95;;;;;;;;;;5092883;28;20040;-62
2022/01/05 05:22:35;;;;;;;18.25;2.13;;;;;;;;;;5091898;28;20131;-62
2022/01/05 05:25:01;;;;;;;14.25;2.05;;;;;;;;;;5093037;28;20483;-63
2022/01/05 05:27:27;;;;;;;12.48;1.65;;;;;;;;;;5092386;28;20075;-61
2022/01/05 05:29:54;;;;;;;11.15;1.77;;;;;;;;;;5092914;28;20048;-62
2022/01/05 05:32:20;;;;;;;8.07;2.03;;;;;;;;;;5092875;28;20043;-62
2022/01/05 05:34:46;;;;;;;11.60;2.05;;;;;;;;;;5091158;28;20390;-63
2022/01/05 05:37:12;;;;;;;15.45;2.17;;;;;;;;;;5092545;28;20032;-62
2022/01/05 05:39:38;;;;;;;9.68;2.13;;;;;;;;;;5092491;28;20043;-62
2022/01/05 05:42:04;;;;;;;20.58;1.98;;;;;;;;;;5092853;28;20044;-61
2022/01/05 05:44:30;;;;;;;10.02;2.50;;;;;;;;;;5092398;28;20062;-62
2022/01/05 05:46:56;;;;;;;16.98;1.85;;;;;;;;;;5092685;28;20958;-61
2022/01/05 05:49:22;;;;;;;14.50;2.28;;;;;;;;;;5090927;28;20032;-62
2022/01/05 05:51:48;;;;;;;18.48;2.42;;;;;;;;;;5092643;28;20036;-62
2022/01/05 05:54:14;;;;;;;9.77;1.45;;;;;;;;;;5092531;28;20379;-63
2022/01/05 05:56:40;;;;;;;14.85;2.08;;;;;;;;;;5090040;28;20048;-61
2022/01/05 05:59:06;;;;;;;14.30;2.25;;;;;;;;;;5092461;28;20047;-61
2022/01/05 06:01:32;;;;;;;14.05;1.98;;;;;;;;;;5092292;28;20517;-61
2022/01/05 06:03:58;;;;;;;12.15;2.20;;;;;;;;;;5091925;28;20024;-62
2022/01/05 06:06:24;;;;;;;13.60;1.95;;;;;;;;;;5091775;28;20035;-61
2022/01/05 06:08:50;;;;;;;7.35;1.75;;;;;;;;;;5091305;28;20036;-61
2022/01/05 06:11:17;;;;;;;11.57;2.47;;;;;;;;;;5091749;28;20044;-62
2022/01/05 06:13:43;;;;;;;10.88;2.22;;;;;;;;;;5091912;28;20115;-63
2022/01/05 06:16:09;;;;;;;14.85;2.20;;;;;;;;;;5091820;28;20043;-60
2022/01/05 06:18:35;;;;;;;13.05;1.95;;;;;;;;;;5092311;28;20040;-61
2022/01/05 06:21:01;;;;;;;12.75;1.33;;;;;;;;;;5090668;28;20485;-61
2022/01/05 06:23:27;;;;;;;11.45;1.90;;;;;;;;;;5092081;28;20036;-62
2022/01/05 06:25:53;;;;;;;10.68;1.60;;;;;;;;;;5091423;28;20055;-61
2022/01/05 06:28:19;;;;;;;12.07;2.13;;;;;;;;;;5091056;28;20139;-61
2022/01/05 06:30:45;;;;;;;19.83;3.10;;;;;;;;;;5091781;28;20105;-63
2022/01/05 06:33:11;;;;;;;8.82;1.70;;;;;;;;;;5091931;28;20039;-63
2022/01/05 06:35:37;;;;;;;12.90;2.45;;;;;;;;;;5091476;28;20047;-62
2022/01/05 06:38:03;;;;;;;14.55;2.58;;;;;;;;;;5091433;28;20047;-63
2022/01/05 06:40:29;;;;;;;11.32;1.70;;;;;;;;;;5089576;28;20047;-60
2022/01/05 06:42:55;;;;;;;13.23;1.63;;;;;;;;;;5091524;28;20036;-63
2022/01/05 06:45:21;;;;;;;15.38;2.33;;;;;;;;;;5091311;28;20043;-61
2022/01/05 06:47:47;;;;;;;11.25;2.17;;;;;;;;;;5091001;28;20042;-62
2022/01/05 06:50:13;;;;;;;11.82;1.88;;;;;;;;;;5090818;28;20032;-64
2022/01/05 06:52:40;;;;;;;13.05;1.98;;;;;;;;;;5091350;28;20412;-63
2022/01/05 06:55:06;;;;;;;10.57;1.77;;;;;;;;;;5091446;28;20452;-61
2022/01/05 06:57:32;;;;;;;14.48;1.88;;;;;;;;;;5091763;28;20439;-62
2022/01/05 06:59:58;;;;;;;12.68;1.42;;;;;;;;;;5091052;28;20040;-64
2022/01/05 07:02:24;;;;;;;9.55;1.55;;;;;;;;;;5090454;28;20077;-61
2022/01/05 07:04:50;;;;;;;9.30;1.80;;;;;;;;;;5091081;28;20036;-61
2022/01/05 07:07:17;;;;;;;16.52;2.25;;;;;;;;;;5090744;28;20398;-61
2022/01/05 07:09:43;;;;;;;13.35;1.60;;;;;;;;;;5089621;28;20051;-62
2022/01/05 07:12:10;;;;;;;9.02;1.92;;;;;;;;;;5090508;28;20060;-61
2022/01/05 07:14:36;;;;;;;12.15;2.33;;;;;;;;;;5088789;28;20532;-63
2022/01/05 07:17:02;;;;;;;14.15;1.67;;;;;;;;;;5089084;28;20056;-60
2022/01/05 07:19:28;;;;;;;15.48;3.00;;;;;;;;;;5090480;28;20062;-61
2022/01/05 07:21:54;;;;;;;9.20;1.58;;;;;;;;;;5089522;28;21339;-61
2022/01/05 07:24:20;;;;;;;13.73;2.17;;;;;;;;;;5089886;28;20474;-61
2022/01/05 07:26:47;;;;;;;15.95;2.60;;;;;;;;;;5090596;28;20036;-61
2022/01/05 07:29:14;;;;;;;14.45;2.10;;;;;;;;;;5089455;28;20461;-62
2022/01/05 07:31:40;;;;;;;14.02;1.95;;;;;;;;;;5088758;28;20079;-62
2022/01/05 07:34:06;;;;;;;16.77;2.05;;;;;;;;;;5090780;28;20032;-61
2022/01/05 07:36:32;;;;;;;13.23;1.70;;;;;;;;;;5089949;28;20040;-62
2022/01/05 07:38:59;;;;;;;16.67;2.15;;;;;;;;;;5090525;28;20036;-61
2022/01/05 07:41:25;;;;;;;13.63;1.98;;;;;;;;;;5089018;28;20040;-61
2022/01/05 07:43:51;;;;;;;9.57;1.95;;;;;;;;;;5089984;28;20036;-62
2022/01/05 07:46:18;;;;;;;19.20;2.55;;;;;;;;;;5088940;28;20048;-61
2022/01/05 07:48:46;;;;;;;22.20;3.50;;;;;;;;;;5090006;28;20039;-63
2022/01/05 07:51:12;;;;;;;20.40;2.53;;;;;;;;;;5090170;28;20051;-61
2022/01/05 07:53:38;;;;;;;19.10;2.10;;;;;;;;;;5089051;28;20040;-61
2022/01/05 07:56:04;;;;;;;18.45;2.28;;;;;;;;;;5088683;28;20081;-61
2022/01/05 07:58:30;;;;;;;10.38;1.77;;;;;;;;;;5088207;28;20059;-63
2022/01/05 08:00:57;;;;;;;14.18;1.70;;;;;;;;;;5089785;28;20032;-62
2022/01/05 08:03:24;;;;;;;16.83;2.13;;;;;;;;;;5089867;28;20059;-63
2022/01/05 08:05:50;;;;;;;17.38;2.80;;;;;;;;;;5088000;28;20173;-64
2022/01/05 08:08:17;;;;;;;15.32;2.60;;;;;;;;;;5090378;28;20076;-63
2022/01/05 08:10:43;;;;;;;18.52;2.03;;;;;;;;;;5090469;28;20115;-61
2022/01/05 08:13:09;;;;;;;7.53;1.33;;;;;;;;;;5089759;28;20035;-63
2022/01/05 08:15:35;;;;;;;15.45;2.72;;;;;;;;;;5088473;28;20044;-62
2022/01/05 08:18:01;;;;;;;11.80;1.80;;;;;;;;;;5090045;28;20367;-60
2022/01/05 08:20:27;;;;;;;12.45;2.03;;;;;;;;;;5089918;28;20107;-60
2022/01/05 08:22:53;;;;;;;10.23;1.88;;;;;;;;;;5089774;28;20075;-64
2022/01/05 08:25:20;;;;;;;19.23;2.28;;;;;;;;;;5089831;28;20477;-62
2022/01/05 08:27:47;;;;;;;11.57;1.77;;;;;;;;;;5089857;28;20406;-62
2022/01/05 08:30:17;;;;;;;13.10;1.50;;;;;;;;;;5087344;28;20052;-62
2022/01/05 08:32:44;;;;;;;19.67;2.30;;;;;;;;;;5089993;28;20564;-63
2022/01/05 08:35:11;;;;;;;21.67;2.95;;;;;;;;;;5087952;28;20186;-60
2022/01/05 08:37:37;;;;;;;25.23;2.45;;;;;;;;;;5089654;28;20118;-64
2022/01/05 08:40:04;;;;;;;9.70;1.98;;;;;;;;;;5089991;28;20071;-63
2022/01/05 08:42:30;;;;;;;11.35;1.40;;;;;;;;;;5089745;28;20596;-62
2022/01/05 08:44:58;;;;;;;15.43;1.90;;;;;;;;;;5089620;28;20032;-60
2022/01/05 08:47:24;;;;;;;12.93;1.70;;;;;;;;;;5089425;28;20093;-62
2022/01/05 08:49:50;;;;;;;5.18;1.20;;;;;;;;;;5089735;28;20043;-63
2022/01/05 08:52:16;;;;;;;7.05;0.70;;;;;;;;;;5089169;28;20040;-63
2022/01/05 08:54:42;;;;;;;7.25;1.05;;;;;;;;;;5089745;28;20044;-61
2022/01/05 08:57:08;;;;;;;8.20;1.30;;;;;;;;;;5089764;28;20066;-60
2022/01/05 08:59:34;;;;;;;8.65;1.70;;;;;;;;;;5089203;28;20115;-62
2022/01/05 09:02:00;;;;;;;10.98;1.40;;;;;;;;;;5089215;28;20078;-62
2022/01/05 09:04:26;;;;;;;10.40;1.60;;;;;;;;;;5089523;28;20071;-62
2022/01/05 09:06:53;;;;;;;12.95;1.70;;;;;;;;;;5089414;28;20078;-63
2022/01/05 09:09:20;;;;;;;15.43;1.67;;;;;;;;;;5089292;28;20123;-63
2022/01/05 09:11:46;;;;;;;12.55;1.67;;;;;;;;;;5088137;28;20044;-61
2022/01/05 09:14:12;;;;;;;14.93;2.10;;;;;;;;;;5088956;28;20513;-60
2022/01/05 09:16:38;;;;;;;12.93;2.03;;;;;;;;;;5089053;28;20044;-62
2022/01/05 09:19:04;;;;;;;15.55;2.38;;;;;;;;;;5089368;28;20044;-62
2022/01/05 09:21:30;;;;;;;12.15;1.65;;;;;;;;;;5089310;28;20114;-60
2022/01/05 09:23:56;;;;;;;15.90;1.67;;;;;;;;;;5089002;28;20043;-59
2022/01/05 09:26:22;;;;;;;7.68;1.42;;;;;;;;;;5089416;28;20039;-62
2022/01/05 09:28:49;;;;;;;10.30;2.00;;;;;;;;;;5087639;28;20064;-60
2022/01/05 09:31:15;;;;;;;16.77;1.90;;;;;;;;;;5088408;28;20081;-61
2022/01/05 09:33:41;;;;;;;8.88;2.47;;;;;;;;;;5088090;28;20044;-61
2022/01/05 09:36:15;;;;;;;16.63;2.30;;;;;;;;;;5088512;28;20169;-63
2022/01/05 09:43:57;;;;;;;19.05;2.17;;;;;;;;;;5089067;28;20131;-62
2022/01/05 09:46:31;;;;;;;20.27;2.60;;;;;;;;;;5090161;28;20036;-61
2022/01/05 09:49:09;;;;;;;17.20;2.10;;;;;;;;;;5089255;28;20032;-61
2022/01/05 09:51:37;;;;;;;11.23;1.88;;;;;;;;;;5092247;28;20457;-64
2022/01/05 09:54:03;;;;;;;8.75;1.45;;;;;;;;;;5092508;28;20040;-62
2022/01/05 09:56:31;;;;;;;15.65;2.00;;;;;;;;;;5092261;28;20032;-61
2022/01/05 09:59:01;;;;;;;13.80;2.47;;;;;;;;;;5091518;28;20504;-62
2022/01/05 10:01:31;;;;;;;15.00;1.70;;;;;;;;;;5092411;28;20081;-61
2022/01/05 10:03:57;;;;;;;13.80;1.73;;;;;;;;;;5091979;28;20032;-62
2022/01/05 10:06:23;;;;;;;19.63;2.80;;;;;;;;;;5092714;28;20043;-63
2022/01/05 10:08:49;;;;;;;9.80;1.98;;;;;;;;;;5091916;28;20051;-61
2022/01/05 10:11:15;;;;;;;15.38;2.10;;;;;;;;;;5091192;28;20050;-62
2022/01/05 10:13:42;;;;;;;13.25;2.45;;;;;;;;;;5092149;28;20044;-63
2022/01/05 10:16:10;;;;;;;16.02;2.38;;;;;;;;;;5091705;28;20040;-63
2022/01/05 10:18:40;;;;;;;9.00;1.83;;;;;;;;;;5091777;28;20041;-61
2022/01/05 10:21:07;;;;;;;18.60;1.98;;;;;;;;;;5091183;28;20035;-63
2022/01/05 10:23:41;;;;;;;10.65;1.52;;;;;;;;;;5091818;28;20035;-62
2022/01/05 10:26:26;;;;;;;14.80;2.60;;;;;;;;;;5090845;28;20044;-63
2022/01/05 10:28:57;;;;;;;13.73;1.98;;;;;;;;;;5090554;28;20498;-64
2022/01/05 10:31:25;;;;;;;17.88;2.72;;;;;;;;;;5091197;28;20044;-63
2022/01/05 10:33:51;;;;;;;14.95;3.28;;;;;;;;;;5090275;28;20036;-61
2022/01/05 10:36:18;;;;;;;8.25;1.45;;;;;;;;;;5091299;28;20043;-61
2022/01/05 10:39:10;;;;;;;15.63;2.15;;;;;;;;;;5091606;28;20774;-63
2022/01/05 10:41:38;;;;;;;13.02;1.90;;;;;;;;;;5088882;28;20052;-61
2022/01/05 10:44:10;;;;;;;16.35;2.30;;;;;;;;;;5091758;28;20036;-64
2022/01/05 10:46:37;;;;;;;15.57;2.75;;;;;;;;;;5090737;28;20501;-63
2022/01/05 10:49:04;;;;;;;16.80;2.35;;;;;;;;;;5091214;28;20436;-62
2022/01/05 10:51:31;;;;;;;12.75;2.28;;;;;;;;;;5089489;28;20040;-62
2022/01/05 10:54:14;;;;;;;13.95;1.73;;;;;;;;;;5091132;28;20130;-61
2022/01/05 10:56:40;;;;;;;7.05;1.98;;;;;;;;;;5090463;28;20063;-60
2022/01/05 10:59:06;;;;;;;9.35;1.88;;;;;;;;;;5091068;28;20374;-61
2022/01/05 11:01:33;;;;;;;14.90;2.17;;;;;;;;;;5091095;28;20573;-61
2022/01/05 11:03:59;;;;;;;20.83;2.50;;;;;;;;;;5089405;28;20046;-60
2022/01/05 11:06:26;;;;;;;17.27;2.33;;;;;;;;;;5090811;28;20043;-62
2022/01/05 11:08:56;;;;;;;15.43;2.13;;;;;;;;;;5090799;28;20032;-63
2022/01/05 11:11:28;;;;;;;10.82;1.88;;;;;;;;;;5090774;28;20119;-61
2022/01/05 11:13:54;;;;;;;16.97;3.20;;;;;;;;;;5088901;28;20043;-63
2022/01/05 11:16:25;;;;;;;16.15;2.42;;;;;;;;;;5091285;28;20289;-61
2022/01/05 11:18:58;;;;;;;22.65;3.03;;;;;;;;;;5090774;28;20531;-62
2022/01/05 11:21:24;;;;;;;18.63;2.20;;;;;;;;;;5090525;28;20043;-63
2022/01/05 11:23:50;;;;;;;18.65;2.25;;;;;;;;;;5090756;28;20511;-63
2022/01/05 11:26:16;;;;;;;15.07;2.30;;;;;;;;;;5090589;28;20147;-63
2022/01/05 11:28:42;;;;;;;10.38;1.77;;;;;;;;;;5090204;28;20102;-61
2022/01/05 11:31:08;;;;;;;14.48;2.25;;;;;;;;;;5090486;28;20047;-61
2022/01/05 11:33:34;;;;;;;16.40;2.38;;;;;;;;;;5085292;28;20047;-63
2022/01/05 11:36:01;;;;;;;15.27;1.55;;;;;;;;;;5087186;28;20039;-62
2022/01/05 11:38:27;;;;;;;12.85;1.40;;;;;;;;;;5090091;28;20048;-64
2022/01/05 11:40:56;;;;;;;12.70;1.95;;;;;;;;;;5090709;28;20028;-63
2022/01/05 11:43:28;;;;;;;13.25;2.08;;;;;;;;;;5090383;28;20453;-63
2022/01/05 11:45:55;;;;;;;13.57;1.92;;;;;;;;;;5089860;28;20039;-63
2022/01/05 11:48:21;;;;;;;16.10;1.73;;;;;;;;;;5089450;28;20035;-63
2022/01/05 11:50:51;;;;;;;10.75;1.50;;;;;;;;;;5089576;28;20089;-63
2022/01/05 11:53:32;;;;;;;8.40;1.48;;;;;;;;;;5089718;28;20391;-64
2022/01/05 11:55:58;;;;;;;10.43;2.05;;;;;;;;;;5089685;28;20087;-64
2022/01/05 11:58:26;;;;;;;6.72;1.50;;;;;;;;;;5087852;28;20076;-65
2022/01/05 12:01:11;;;;;;;16.52;1.95;;;;;;;;;;5089471;28;20105;-63
2022/01/05 12:04:09;;;;;;;16.75;1.77;;;;;;;;;;5088188;28;20059;-63
2022/01/05 12:06:38;;;;;;;13.45;1.90;;;;;;;;;;5026979;28;20451;-63
2022/01/05 12:09:05;;;;;;;14.07;3.10;;;;;;;;;;5025645;28;20466;-63
2022/01/05 12:11:33;;;;;;;12.02;2.00;;;;;;;;;;5028653;28;20445;-63
2022/01/05 12:13:59;;;;;;;14.05;1.90;;;;;;;;;;5027491;28;20045;-62
2022/01/05 12:16:25;;;;;;;15.63;2.75;;;;;;;;;;5026364;28;20052;-64
2022/01/05 12:19:07;;;;;;;16.85;2.53;;;;;;;;;;5027133;28;20041;-63
2022/01/05 12:21:46;;;;;;;18.63;3.03;;;;;;;;;;5030935;28;20040;-61
2022/01/05 12:24:13;;;;;;;12.98;2.40;;;;;;;;;;5027979;28;20041;-64
2022/01/05 12:26:39;;;;;;;11.98;1.80;;;;;;;;;;5010897;28;20037;-62
2022/01/05 12:29:05;;;;;;;8.65;1.33;;;;;;;;;;5026451;28;20050;-63
2022/01/05 12:31:50;;;;;;;10.63;1.60;;;;;;;;;;5026274;28;20045;-62
2022/01/05 12:34:34;;;;;;;6.53;1.30;;;;;;;;;;5027389;28;20083;-64
2022/01/05 12:37:01;;;;;;;10.63;1.40;;;;;;;;;;5026711;28;20048;-64
2022/01/05 12:39:48;;;;;;;12.00;2.17;;;10.60;99.90;;;;;;5026446;28;20408;-63
2022/01/05 12:42:23;;;;;;;6.20;1.10;;;;;;;;;;5056988;28;20131;-64
2022/01/05 12:44:49;;;;;;;8.20;1.20;;;;;;;;;;5088496;28;20038;-63
2022/01/05 12:47:17;;;;;;;5.32;0.80;;;;;;;;;;5087206;28;20132;-64
2022/01/05 12:49:43;;;;;;;8.05;1.35;;;;;;;;;;5088576;28;20048;-63
2022/01/05 12:52:12;;;;;;;10.63;1.75;;;;;;;;;;5088325;28;20036;-63
2022/01/05 12:54:42;;;;;;;8.23;1.20;;;;;;;;;;5088728;28;20040;-63
2022/01/05 12:57:09;;;;;;;11.95;1.42;;;;;;;;;;5088164;28;20411;-63
2022/01/05 12:59:37;;;;;;;8.55;1.33;;;;;;;;;;5088841;28;20032;-62
2022/01/05 13:02:07;;;;;;;6.95;1.30;;;;;;;;;;5088420;28;20067;-63
2022/01/05 13:04:35;;;;;;;7.15;1.10;;;;;;;;;;5089100;28;20047;-63
2022/01/05 13:07:03;;;;;;;5.38;0.90;;;;;;;;;;5088934;28;20045;-62
2022/01/05 13:09:39;;;;;;;6.13;0.90;;;;;;;;;;5088333;28;20399;-63
2022/01/05 13:12:09;;;;;;;6.10;1.00;;;;;;;;;;5088872;28;20119;-62
2022/01/05 13:14:36;;;;;;;7.63;1.10;;;;;;;;;;5088544;28;20079;-65
2022/01/05 13:17:02;;;;;;;5.57;1.23;;;;;;;;;;5088520;28;20040;-64
2022/01/05 13:19:29;;;;;;;9.18;2.08;;;;;;;;;;5088776;28;20075;-63
2022/01/05 13:21:56;;;;;;;7.78;1.38;;;;;;;;;;5091200;28;20028;-64
2022/01/05 13:24:25;;;;;;;8.40;1.13;;;;;;;;;;5093578;28;20036;-63
2022/01/05 13:27:01;;;;;;;6.20;1.30;;;;;;;;;;5092019;28;20036;-63
2022/01/05 13:29:28;;;;;;;10.75;1.50;;;;;;;;;;5092745;28;20059;-62
2022/01/05 13:31:58;;;;;;;8.18;1.50;;;;;;;;;;5093697;28;20040;-63
2022/01/05 13:34:41;;;;;;;10.20;1.65;;;;;;;;;;5091236;28;20119;-64
2022/01/05 13:37:07;;;;;;;;;;;;;;;;;;5093727;28;20123;-62
2022/01/05 13:39:37;;;;;;;10.48;1.80;;;;;;;;;;5092897;28;20057;-62
2022/01/05 13:42:07;;;;;;;12.77;1.98;;;;;;;;;;5092820;28;20393;-63
2022/01/05 13:44:33;;;;;;;16.60;1.80;;;;;;;;;;5092397;28;20048;-64
2022/01/05 13:46:59;;;;;;;11.40;1.38;;;;;;;;;;5091043;28;20048;-63
2022/01/05 13:49:25;;;;;;;8.43;1.73;;;;;;;;;;5092271;28;20039;-63
2022/01/05 13:52:05;;;;;;;15.73;2.20;;;;;;;;;;5093312;28;20051;-65
2022/01/05 13:54:38;;;;;;;11.93;1.88;;;;;;;;;;5092340;28;20039;-63
2022/01/05 13:57:05;;;;;;;14.63;2.70;;;;;;;;;;5090907;28;20044;-64
2022/01/05 13:59:40;;;;;;;15.02;2.47;;;;;;;;;;5092232;28;20471;-64
2022/01/05 14:02:09;;;;;;;13.73;3.05;;;;;;;;;;5092193;28;20528;-62
2022/01/05 14:04:46;;;;;;;22.55;2.88;;;;;;;;;;5092065;28;20498;-63
2022/01/05 14:07:16;;;;;;;16.08;2.45;;;;;;;;;;5092170;28;20036;-64
2022/01/05 14:09:42;;;;;;;13.70;1.92;;;;;;;;;;5092069;28;20036;-63
2022/01/05 14:12:27;;;;;;;10.70;1.42;;;;;;;;;;5090897;28;20085;-61
2022/01/05 14:15:00;;;;;;;8.18;1.65;;;;;;;;;;5091955;28;20047;-64
2022/01/05 14:17:28;;;;;;;7.85;1.50;;;;;;;;;;5091986;28;20050;-63
2022/01/05 14:20:13;;;;;;;7.97;1.45;;;;;;;;;;5091868;28;20040;-64
2022/01/05 14:22:40;;;;;;;14.30;2.35;;;;;;;;;;5090516;28;20036;-62
2022/01/05 14:25:06;;;;;;;9.98;1.67;;;;;;;;;;5092255;28;20040;-61
2022/01/05 14:27:36;;;;;;;13.13;1.77;;;;;;;;;;5091208;28;20054;-64
2022/01/05 14:30:05;;;;;;;7.32;1.70;;;;;;;;;;5091435;28;20052;-61
2022/01/05 14:32:33;;;;;;;10.65;1.30;;;;;;;;;;5091397;28;20115;-63
2022/01/05 14:35:00;;;;;;;8.30;1.30;;;;;;;;;;5091550;28;20028;-63
2022/01/05 14:37:26;;;;;;;11.05;1.42;;;;;;;;;;5091530;28;20395;-62
2022/01/05 14:39:54;;;;;;;9.50;1.90;;;;;;;;;;5091339;28;20047;-63
2022/01/05 14:42:20;;;;;;;11.32;1.70;;;;;;;;;;5091251;28;20047;-62